sensor_id;sensor_type;location;lat;lon;timestamp;temperature;humidity
61145;DHT22;47026;51.208;3.288;2022-09-21T00:00:36;12.40;99.90
61145;DHT22;47026;51.208;3.288;2022-09-21T00:03:03;12.30;99.90
61145;DHT22;47026;51.208;3.288;2022-09-21T00:05:29;12.20;99.90
61145;DHT22;47026;51.208;3.288;2022-09-21T00:07:58;12.10;99.90
61145;DHT22;47026;51.208;3.288;2022-09-21T00:10:23;12.00;99.90
61145;DHT22;47026;51.208;3.288;2022-09-21T00:12:49;12.00;99.90
61145;DHT22;47026;51.208;3.288;2022-09-21T00:15:16;11.90;99.90
61145;DHT22;47026;51.208;3.288;2022-09-21T00:17:43;11.80;99.90
61145;DHT22;47026;51.208;3.288;2022-09-21T00:20:09;11.80;99.90
61145;DHT22;47026;51.208;3.288;2022-09-21T00:22:34;11.90;99.90
61145;DHT22;47026;51.208;3.288;2022-09-21T00:25:01;11.90;99.90
61145;DHT22;47026;51.208;3.288;2022-09-21T00:27:30;11.90;99.90
61145;DHT22;47026;51.208;3.288;2022-09-21T00:29:57;11.90;99.90
61145;DHT22;47026;51.208;3.288;2022-09-21T00:32:23;11.80;99.90
61145;DHT22;47026;51.208;3.288;2022-09-21T00:34:51;11.90;99.90
61145;DHT22;47026;51.208;3.288;2022-09-21T00:37:18;11.90;99.90
61145;DHT22;47026;51.208;3.288;2022-09-21T00:39:44;11.80;99.90
61145;DHT22;47026;51.208;3.288;2022-09-21T00:42:12;11.80;99.90
61145;DHT22;47026;51.208;3.288;2022-09-21T00:44:39;11.70;99.90
61145;DHT22;47026;51.208;3.288;2022-09-21T00:47:06;11.60;99.90
61145;DHT22;47026;51.208;3.288;2022-09-21T00:49:34;11.50;99.90
61145;DHT22;47026;51.208;3.288;2022-09-21T00:52:02;11.50;99.90
61145;DHT22;47026;51.208;3.288;2022-09-21T00:54:36;11.50;99.90
61145;DHT22;47026;51.208;3.288;2022-09-21T00:57:04;11.40;99.90
61145;DHT22;47026;51.208;3.288;2022-09-21T00:59:31;11.30;99.90
61145;DHT22;47026;51.208;3.288;2022-09-21T01:01:58;11.30;99.90
61145;DHT22;47026;51.208;3.288;2022-09-21T01:04:25;11.30;99.90
61145;DHT22;47026;51.208;3.288;2022-09-21T01:06:53;11.20;99.90
61145;DHT22;47026;51.208;3.288;2022-09-21T01:09:19;11.30;99.90
61145;DHT22;47026;51.208;3.288;2022-09-21T01:12:46;11.30;99.90
61145;DHT22;47026;51.208;3.288;2022-09-21T01:17:45;11.30;99.90
61145;DHT22;47026;51.208;3.288;2022-09-21T01:23:32;11.20;99.90
61145;DHT22;47026;51.208;3.288;2022-09-21T01:30:59;11.00;99.90
61145;DHT22;47026;51.208;3.288;2022-09-21T01:33:44;10.90;99.90
61145;DHT22;47026;51.208;3.288;2022-09-21T01:36:14;10.80;99.90
61145;DHT22;47026;51.208;3.288;2022-09-21T01:38:47;10.90;99.90
61145;DHT22;47026;51.208;3.288;2022-09-21T01:41:19;10.80;99.90
61145;DHT22;47026;51.208;3.288;2022-09-21T01:43:49;11.00;99.90
61145;DHT22;47026;51.208;3.288;2022-09-21T01:46:20;11.00;99.90
61145;DHT22;47026;51.208;3.288;2022-09-21T01:48:49;10.80;99.90
61145;DHT22;47026;51.208;3.288;2022-09-21T01:51:19;10.80;99.90
61145;DHT22;47026;51.208;3.288;2022-09-21T01:54:02;10.80;99.90
61145;DHT22;47026;51.208;3.288;2022-09-21T01:56:39;10.80;99.90
61145;DHT22;47026;51.208;3.288;2022-09-21T01:59:12;10.80;99.90
61145;DHT22;47026;51.208;3.288;2022-09-21T02:01:55;10.70;99.90
61145;DHT22;47026;51.208;3.288;2022-09-21T02:04:22;10.60;99.90
61145;DHT22;47026;51.208;3.288;2022-09-21T02:06:49;10.60;99.90
61145;DHT22;47026;51.208;3.288;2022-09-21T02:09:16;10.60;99.90
61145;DHT22;47026;51.208;3.288;2022-09-21T02:11:42;10.60;99.90
61145;DHT22;47026;51.208;3.288;2022-09-21T02:14:19;10.60;99.90
61145;DHT22;47026;51.208;3.288;2022-09-21T02:16:47;10.60;99.90
61145;DHT22;47026;51.208;3.288;2022-09-21T02:19:30;10.70;99.90
61145;DHT22;47026;51.208;3.288;2022-09-21T02:22:06;10.60;99.90
61145;DHT22;47026;51.208;3.288;2022-09-21T02:27:50;10.60;99.90
61145;DHT22;47026;51.208;3.288;2022-09-21T02:30:22;10.60;99.90
61145;DHT22;47026;51.208;3.288;2022-09-21T02:33:01;10.60;99.90
61145;DHT22;47026;51.208;3.288;2022-09-21T02:36:00;10.60;99.90
61145;DHT22;47026;51.208;3.288;2022-09-21T02:38:43;10.60;99.90
61145;DHT22;47026;51.208;3.288;2022-09-21T02:41:35;10.50;99.90
61145;DHT22;47026;51.208;3.288;2022-09-21T02:44:14;10.50;99.90
61145;DHT22;47026;51.208;3.288;2022-09-21T02:47:03;10.50;99.90
61145;DHT22;47026;51.208;3.288;2022-09-21T02:49:38;10.50;99.90
61145;DHT22;47026;51.208;3.288;2022-09-21T02:52:10;10.40;99.90
61145;DHT22;47026;51.208;3.288;2022-09-21T02:54:39;10.40;99.90
61145;DHT22;47026;51.208;3.288;2022-09-21T02:57:06;10.30;99.90
61145;DHT22;47026;51.208;3.288;2022-09-21T02:59:33;10.30;99.90
61145;DHT22;47026;51.208;3.288;2022-09-21T03:01:59;10.20;99.90
61145;DHT22;47026;51.208;3.288;2022-09-21T03:04:25;10.20;99.90
61145;DHT22;47026;51.208;3.288;2022-09-21T03:06:52;10.20;99.90
61145;DHT22;47026;51.208;3.288;2022-09-21T03:09:18;10.20;99.90
61145;DHT22;47026;51.208;3.288;2022-09-21T03:11:45;10.30;99.90
61145;DHT22;47026;51.208;3.288;2022-09-21T03:14:11;10.20;99.90
61145;DHT22;47026;51.208;3.288;2022-09-21T03:16:37;10.20;99.90
61145;DHT22;47026;51.208;3.288;2022-09-21T03:19:04;10.20;99.90
61145;DHT22;47026;51.208;3.288;2022-09-21T03:21:29;10.20;99.90
61145;DHT22;47026;51.208;3.288;2022-09-21T03:23:55;10.10;99.90
61145;DHT22;47026;51.208;3.288;2022-09-21T03:26:21;10.00;99.90
61145;DHT22;47026;51.208;3.288;2022-09-21T03:28:49;10.00;99.90
61145;DHT22;47026;51.208;3.288;2022-09-21T03:31:15;9.90;99.90
61145;DHT22;47026;51.208;3.288;2022-09-21T03:33:41;10.00;99.90
61145;DHT22;47026;51.208;3.288;2022-09-21T03:36:07;9.90;99.90
61145;DHT22;47026;51.208;3.288;2022-09-21T03:38:33;9.90;99.90
61145;DHT22;47026;51.208;3.288;2022-09-21T03:40:59;9.90;99.90
61145;DHT22;47026;51.208;3.288;2022-09-21T03:43:25;10.00;99.90
61145;DHT22;47026;51.208;3.288;2022-09-21T03:45:51;10.00;99.90
61145;DHT22;47026;51.208;3.288;2022-09-21T03:48:17;10.10;99.90
61145;DHT22;47026;51.208;3.288;2022-09-21T03:50:43;10.10;99.90
61145;DHT22;47026;51.208;3.288;2022-09-21T03:53:09;10.10;99.90
61145;DHT22;47026;51.208;3.288;2022-09-21T03:55:35;9.90;99.90
61145;DHT22;47026;51.208;3.288;2022-09-21T03:58:01;9.90;99.90
61145;DHT22;47026;51.208;3.288;2022-09-21T04:00:27;9.90;99.90
61145;DHT22;47026;51.208;3.288;2022-09-21T04:02:53;10.00;99.90
61145;DHT22;47026;51.208;3.288;2022-09-21T04:05:18;9.90;99.90
61145;DHT22;47026;51.208;3.288;2022-09-21T04:07:45;9.80;99.90
61145;DHT22;47026;51.208;3.288;2022-09-21T04:10:13;9.80;99.90
61145;DHT22;47026;51.208;3.288;2022-09-21T04:12:41;9.80;99.90
61145;DHT22;47026;51.208;3.288;2022-09-21T04:15:11;9.80;99.90
61145;DHT22;47026;51.208;3.288;2022-09-21T04:17:37;9.70;99.90
61145;DHT22;47026;51.208;3.288;2022-09-21T04:20:04;9.70;99.90
61145;DHT22;47026;51.208;3.288;2022-09-21T04:22:29;9.60;99.90
61145;DHT22;47026;51.208;3.288;2022-09-21T04:24:56;9.60;99.90
61145;DHT22;47026;51.208;3.288;2022-09-21T04:27:21;9.50;99.90
61145;DHT22;47026;51.208;3.288;2022-09-21T04:29:47;9.60;99.90
61145;DHT22;47026;51.208;3.288;2022-09-21T04:32:13;9.60;99.90
61145;DHT22;47026;51.208;3.288;2022-09-21T04:34:38;9.60;99.90
61145;DHT22;47026;51.208;3.288;2022-09-21T04:37:05;9.50;99.90
61145;DHT22;47026;51.208;3.288;2022-09-21T04:39:33;9.50;99.90
61145;DHT22;47026;51.208;3.288;2022-09-21T04:41:58;9.70;99.90
61145;DHT22;47026;51.208;3.288;2022-09-21T04:44:24;9.60;99.90
61145;DHT22;47026;51.208;3.288;2022-09-21T04:46:49;9.60;99.90
61145;DHT22;47026;51.208;3.288;2022-09-21T04:49:15;9.50;99.90
61145;DHT22;47026;51.208;3.288;2022-09-21T04:51:40;9.40;99.90
61145;DHT22;47026;51.208;3.288;2022-09-21T04:54:06;9.40;99.90
61145;DHT22;47026;51.208;3.288;2022-09-21T04:56:32;9.40;99.90
61145;DHT22;47026;51.208;3.288;2022-09-21T04:58:58;9.50;99.90
61145;DHT22;47026;51.208;3.288;2022-09-21T05:01:24;9.30;99.90
61145;DHT22;47026;51.208;3.288;2022-09-21T05:03:49;9.30;99.90
61145;DHT22;47026;51.208;3.288;2022-09-21T05:06:15;9.40;99.90
61145;DHT22;47026;51.208;3.288;2022-09-21T05:08:41;9.30;99.90
61145;DHT22;47026;51.208;3.288;2022-09-21T05:11:25;9.30;99.90
61145;DHT22;47026;51.208;3.288;2022-09-21T05:13:51;9.30;99.90
61145;DHT22;47026;51.208;3.288;2022-09-21T05:16:17;9.30;99.90
61145;DHT22;47026;51.208;3.288;2022-09-21T05:18:43;9.20;99.90
61145;DHT22;47026;51.208;3.288;2022-09-21T05:21:11;9.20;99.90
61145;DHT22;47026;51.208;3.288;2022-09-21T05:23:37;9.30;99.90
61145;DHT22;47026;51.208;3.288;2022-09-21T05:26:07;9.30;99.90
61145;DHT22;47026;51.208;3.288;2022-09-21T05:28:35;9.30;99.90
61145;DHT22;47026;51.208;3.288;2022-09-21T05:33:47;9.20;99.90
61145;DHT22;47026;51.208;3.288;2022-09-21T05:39:05;9.20;99.90
61145;DHT22;47026;51.208;3.288;2022-09-21T05:41:31;9.30;99.90
61145;DHT22;47026;51.208;3.288;2022-09-21T05:43:57;9.20;99.90
61145;DHT22;47026;51.208;3.288;2022-09-21T05:49:01;9.20;99.90
61145;DHT22;47026;51.208;3.288;2022-09-21T05:52:18;9.20;99.90
61145;DHT22;47026;51.208;3.288;2022-09-21T05:54:51;9.20;99.90
61145;DHT22;47026;51.208;3.288;2022-09-21T05:57:37;9.20;99.90
61145;DHT22;47026;51.208;3.288;2022-09-21T06:05:27;9.40;99.90
61145;DHT22;47026;51.208;3.288;2022-09-21T06:07:52;9.30;99.90
61145;DHT22;47026;51.208;3.288;2022-09-21T06:10:18;9.30;99.90
61145;DHT22;47026;51.208;3.288;2022-09-21T06:12:44;9.50;99.90
61145;DHT22;47026;51.208;3.288;2022-09-21T06:15:12;9.40;99.90
61145;DHT22;47026;51.208;3.288;2022-09-21T06:17:38;9.50;99.90
61145;DHT22;47026;51.208;3.288;2022-09-21T06:20:05;9.40;99.90
61145;DHT22;47026;51.208;3.288;2022-09-21T06:22:32;9.50;99.90
61145;DHT22;47026;51.208;3.288;2022-09-21T06:24:58;9.60;99.90
61145;DHT22;47026;51.208;3.288;2022-09-21T06:27:23;9.60;99.90
61145;DHT22;47026;51.208;3.288;2022-09-21T06:29:49;9.50;99.90
61145;DHT22;47026;51.208;3.288;2022-09-21T06:32:14;9.50;99.90
61145;DHT22;47026;51.208;3.288;2022-09-21T06:34:40;9.60;99.90
61145;DHT22;47026;51.208;3.288;2022-09-21T06:37:07;9.70;99.90
61145;DHT22;47026;51.208;3.288;2022-09-21T06:39:33;9.80;99.90
61145;DHT22;47026;51.208;3.288;2022-09-21T06:41:59;9.70;99.90
61145;DHT22;47026;51.208;3.288;2022-09-21T06:44:25;9.70;99.90
61145;DHT22;47026;51.208;3.288;2022-09-21T06:46:50;9.80;99.90
61145;DHT22;47026;51.208;3.288;2022-09-21T06:49:16;9.90;99.90
61145;DHT22;47026;51.208;3.288;2022-09-21T06:51:41;10.10;99.90
61145;DHT22;47026;51.208;3.288;2022-09-21T06:54:07;10.20;99.90
61145;DHT22;47026;51.208;3.288;2022-09-21T06:56:33;10.20;99.90
61145;DHT22;47026;51.208;3.288;2022-09-21T06:59:00;10.30;99.90
61145;DHT22;47026;51.208;3.288;2022-09-21T07:01:25;10.60;99.90
61145;DHT22;47026;51.208;3.288;2022-09-21T07:03:51;10.80;99.90
61145;DHT22;47026;51.208;3.288;2022-09-21T07:06:18;10.80;99.90
61145;DHT22;47026;51.208;3.288;2022-09-21T07:08:46;10.90;99.90
61145;DHT22;47026;51.208;3.288;2022-09-21T07:11:12;11.00;99.90
61145;DHT22;47026;51.208;3.288;2022-09-21T07:13:40;11.10;99.90
61145;DHT22;47026;51.208;3.288;2022-09-21T07:16:07;11.30;99.90
61145;DHT22;47026;51.208;3.288;2022-09-21T07:18:33;11.50;99.90
61145;DHT22;47026;51.208;3.288;2022-09-21T07:21:02;11.70;99.90
61145;DHT22;47026;51.208;3.288;2022-09-21T07:23:28;12.10;99.90
61145;DHT22;47026;51.208;3.288;2022-09-21T07:25:54;13.00;99.90
61145;DHT22;47026;51.208;3.288;2022-09-21T07:28:20;14.20;99.90
61145;DHT22;47026;51.208;3.288;2022-09-21T07:30:46;15.50;99.90
61145;DHT22;47026;51.208;3.288;2022-09-21T07:33:11;16.90;99.90
61145;DHT22;47026;51.208;3.288;2022-09-21T07:35:37;18.10;99.90
61145;DHT22;47026;51.208;3.288;2022-09-21T07:38:05;19.30;99.90
61145;DHT22;47026;51.208;3.288;2022-09-21T07:40:31;20.10;99.90
61145;DHT22;47026;51.208;3.288;2022-09-21T07:43:00;20.30;99.90
61145;DHT22;47026;51.208;3.288;2022-09-21T07:45:29;20.60;99.90
61145;DHT22;47026;51.208;3.288;2022-09-21T07:48:00;21.10;99.90
61145;DHT22;47026;51.208;3.288;2022-09-21T07:50:26;22.00;99.90
61145;DHT22;47026;51.208;3.288;2022-09-21T07:52:51;23.10;99.90
61145;DHT22;47026;51.208;3.288;2022-09-21T07:55:17;24.00;99.90
61145;DHT22;47026;51.208;3.288;2022-09-21T07:57:43;24.70;99.90
61145;DHT22;47026;51.208;3.288;2022-09-21T08:00:27;25.50;99.90
61145;DHT22;47026;51.208;3.288;2022-09-21T08:02:57;24.70;99.90
61145;DHT22;47026;51.208;3.288;2022-09-21T08:05:22;23.90;99.90
61145;DHT22;47026;51.208;3.288;2022-09-21T08:07:48;23.40;99.90
61145;DHT22;47026;51.208;3.288;2022-09-21T08:10:14;22.90;99.90
61145;DHT22;47026;51.208;3.288;2022-09-21T08:12:43;22.30;99.90
61145;DHT22;47026;51.208;3.288;2022-09-21T08:15:09;22.40;99.90
61145;DHT22;47026;51.208;3.288;2022-09-21T08:17:37;22.80;99.90
61145;DHT22;47026;51.208;3.288;2022-09-21T08:20:03;23.90;99.90
61145;DHT22;47026;51.208;3.288;2022-09-21T08:22:28;24.70;99.90
61145;DHT22;47026;51.208;3.288;2022-09-21T08:24:54;24.30;99.90
61145;DHT22;47026;51.208;3.288;2022-09-21T08:27:20;25.40;99.90
61145;DHT22;47026;51.208;3.288;2022-09-21T08:29:45;26.10;99.90
61145;DHT22;47026;51.208;3.288;2022-09-21T08:32:11;26.30;99.90
61145;DHT22;47026;51.208;3.288;2022-09-21T08:34:37;26.60;99.90
61145;DHT22;47026;51.208;3.288;2022-09-21T08:37:02;27.20;99.90
61145;DHT22;47026;51.208;3.288;2022-09-21T08:39:28;27.80;99.90
61145;DHT22;47026;51.208;3.288;2022-09-21T08:44:24;27.40;99.90
61145;DHT22;47026;51.208;3.288;2022-09-21T08:47:18;25.80;99.90
61145;DHT22;47026;51.208;3.288;2022-09-21T08:49:54;24.40;99.90
61145;DHT22;47026;51.208;3.288;2022-09-21T08:52:23;24.40;99.90
61145;DHT22;47026;51.208;3.288;2022-09-21T08:55:18;25.30;99.90
61145;DHT22;47026;51.208;3.288;2022-09-21T08:57:44;26.30;99.90
61145;DHT22;47026;51.208;3.288;2022-09-21T09:00:15;27.40;99.90
61145;DHT22;47026;51.208;3.288;2022-09-21T09:03:28;29.10;99.90
61145;DHT22;47026;51.208;3.288;2022-09-21T09:06:10;28.50;99.90
61145;DHT22;47026;51.208;3.288;2022-09-21T09:22:03;28.00;99.10
61145;DHT22;47026;51.208;3.288;2022-09-21T09:24:48;27.90;98.00
61145;DHT22;47026;51.208;3.288;2022-09-21T09:27:26;29.40;96.90
61145;DHT22;47026;51.208;3.288;2022-09-21T09:30:09;28.60;96.10
61145;DHT22;47026;51.208;3.288;2022-09-21T09:38:02;29.10;94.50
61145;DHT22;47026;51.208;3.288;2022-09-21T09:40:51;28.50;95.50
61145;DHT22;47026;51.208;3.288;2022-09-21T09:43:33;29.10;94.60
61145;DHT22;47026;51.208;3.288;2022-09-21T09:51:19;31.30;92.70
61145;DHT22;47026;51.208;3.288;2022-09-21T09:53:45;31.80;91.80
61145;DHT22;47026;51.208;3.288;2022-09-21T09:56:11;31.10;90.80
61145;DHT22;47026;51.208;3.288;2022-09-21T09:59:02;30.10;92.00
61145;DHT22;47026;51.208;3.288;2022-09-21T10:04:15;31.00;91.30
61145;DHT22;47026;51.208;3.288;2022-09-21T10:06:42;30.60;91.10
61145;DHT22;47026;51.208;3.288;2022-09-21T10:09:30;31.30;90.00
61145;DHT22;47026;51.208;3.288;2022-09-21T10:12:34;32.40;90.70
61145;DHT22;47026;51.208;3.288;2022-09-21T10:14:55;31.50;89.30
61145;DHT22;47026;51.208;3.288;2022-09-21T10:17:23;32.10;87.60
61145;DHT22;47026;51.208;3.288;2022-09-21T10:20:00;30.60;87.40
61145;DHT22;47026;51.208;3.288;2022-09-21T10:22:27;29.00;90.00
61145;DHT22;47026;51.208;3.288;2022-09-21T10:24:55;29.20;91.10
61145;DHT22;47026;51.208;3.288;2022-09-21T10:27:29;29.30;89.00
61145;DHT22;47026;51.208;3.288;2022-09-21T10:29:58;29.70;88.80
61145;DHT22;47026;51.208;3.288;2022-09-21T10:32:26;31.50;86.10
61145;DHT22;47026;51.208;3.288;2022-09-21T10:37:40;33.20;81.50
61145;DHT22;47026;51.208;3.288;2022-09-21T10:42:45;32.10;81.00
61145;DHT22;47026;51.208;3.288;2022-09-21T10:45:16;31.50;81.90
61145;DHT22;47026;51.208;3.288;2022-09-21T10:52:46;32.00;82.90
61145;DHT22;47026;51.208;3.288;2022-09-21T10:55:21;30.90;82.70
61145;DHT22;47026;51.208;3.288;2022-09-21T10:57:49;31.20;81.80
61145;DHT22;47026;51.208;3.288;2022-09-21T11:02:50;31.70;80.50
61145;DHT22;47026;51.208;3.288;2022-09-21T11:05:31;31.90;80.50
61145;DHT22;47026;51.208;3.288;2022-09-21T11:10:49;32.40;78.40
61145;DHT22;47026;51.208;3.288;2022-09-21T11:13:38;33.60;75.40
61145;DHT22;47026;51.208;3.288;2022-09-21T11:21:33;35.10;69.70
61145;DHT22;47026;51.208;3.288;2022-09-21T11:27:08;36.20;67.50
61145;DHT22;47026;51.208;3.288;2022-09-21T11:29:48;34.80;67.60
61145;DHT22;47026;51.208;3.288;2022-09-21T11:35:05;33.00;70.70
61145;DHT22;47026;51.208;3.288;2022-09-21T11:49:16;29.30;84.10
61145;DHT22;47026;51.208;3.288;2022-09-21T12:07:53;31.80;74.10
61145;DHT22;47026;51.208;3.288;2022-09-21T12:13:42;29.90;77.30
61145;DHT22;47026;51.208;3.288;2022-09-21T12:21:39;31.50;72.90
61145;DHT22;47026;51.208;3.288;2022-09-21T12:24:29;29.00;74.30
61145;DHT22;47026;51.208;3.288;2022-09-21T12:26:58;28.80;79.00
61145;DHT22;47026;51.208;3.288;2022-09-21T12:29:40;28.60;78.20
61145;DHT22;47026;51.208;3.288;2022-09-21T12:34:59;31.10;72.40
61145;DHT22;47026;51.208;3.288;2022-09-21T12:37:39;32.80;71.50
61145;DHT22;47026;51.208;3.288;2022-09-21T12:40:19;34.70;68.50
61145;DHT22;47026;51.208;3.288;2022-09-21T12:43:12;34.80;65.80
61145;DHT22;47026;51.208;3.288;2022-09-21T12:45:57;35.80;65.10
61145;DHT22;47026;51.208;3.288;2022-09-21T12:53:45;34.80;66.10
61145;DHT22;47026;51.208;3.288;2022-09-21T12:56:40;32.80;69.10
61145;DHT22;47026;51.208;3.288;2022-09-21T13:02:16;31.80;69.00
61145;DHT22;47026;51.208;3.288;2022-09-21T13:05:03;32.20;69.00
61145;DHT22;47026;51.208;3.288;2022-09-21T13:13:05;34.40;63.60
61145;DHT22;47026;51.208;3.288;2022-09-21T13:15:42;30.00;70.30
61145;DHT22;47026;51.208;3.288;2022-09-21T13:18:22;31.30;70.30
61145;DHT22;47026;51.208;3.288;2022-09-21T13:20:49;33.70;68.60
61145;DHT22;47026;51.208;3.288;2022-09-21T13:23:36;32.90;66.80
61145;DHT22;47026;51.208;3.288;2022-09-21T13:26:11;31.80;69.20
61145;DHT22;47026;51.208;3.288;2022-09-21T13:31:39;32.50;65.90
61145;DHT22;47026;51.208;3.288;2022-09-21T13:36:41;29.50;71.80
61145;DHT22;47026;51.208;3.288;2022-09-21T13:41:34;27.40;76.70
61145;DHT22;47026;51.208;3.288;2022-09-21T13:44:03;26.30;77.80
61145;DHT22;47026;51.208;3.288;2022-09-21T13:51:51;25.60;83.70
61145;DHT22;47026;51.208;3.288;2022-09-21T13:54:21;25.70;80.70
61145;DHT22;47026;51.208;3.288;2022-09-21T13:59:26;28.20;76.50
61145;DHT22;47026;51.208;3.288;2022-09-21T14:01:52;29.00;73.90
61145;DHT22;47026;51.208;3.288;2022-09-21T14:04:45;29.00;75.70
61145;DHT22;47026;51.208;3.288;2022-09-21T14:07:12;27.80;77.40
61145;DHT22;47026;51.208;3.288;2022-09-21T14:09:43;26.80;80.40
61145;DHT22;47026;51.208;3.288;2022-09-21T14:12:22;26.20;82.50
61145;DHT22;47026;51.208;3.288;2022-09-21T14:17:44;24.80;86.10
61145;DHT22;47026;51.208;3.288;2022-09-21T14:20:30;24.40;86.90
61145;DHT22;47026;51.208;3.288;2022-09-21T14:26:31;24.70;84.50
61145;DHT22;47026;51.208;3.288;2022-09-21T14:29:06;24.70;84.30
61145;DHT22;47026;51.208;3.288;2022-09-21T14:31:35;24.70;85.50
61145;DHT22;47026;51.208;3.288;2022-09-21T14:34:03;24.80;82.90
61145;DHT22;47026;51.208;3.288;2022-09-21T14:36:42;25.30;83.40
61145;DHT22;47026;51.208;3.288;2022-09-21T14:39:32;25.20;80.40
61145;DHT22;47026;51.208;3.288;2022-09-21T14:42:08;25.60;83.50
61145;DHT22;47026;51.208;3.288;2022-09-21T14:44:38;23.90;85.00
61145;DHT22;47026;51.208;3.288;2022-09-21T14:58:41;22.10;92.30
61145;DHT22;47026;51.208;3.288;2022-09-21T15:10:27;22.30;92.10
61145;DHT22;47026;51.208;3.288;2022-09-21T15:18:39;22.90;90.40
61145;DHT22;47026;51.208;3.288;2022-09-21T15:21:22;22.70;91.60
61145;DHT22;47026;51.208;3.288;2022-09-21T15:23:51;23.10;91.70
61145;DHT22;47026;51.208;3.288;2022-09-21T15:26:28;23.00;91.10
61145;DHT22;47026;51.208;3.288;2022-09-21T15:29:02;22.60;92.10
61145;DHT22;47026;51.208;3.288;2022-09-21T15:31:39;22.20;92.20
61145;DHT22;47026;51.208;3.288;2022-09-21T15:34:06;22.00;92.70
61145;DHT22;47026;51.208;3.288;2022-09-21T15:36:39;22.50;92.40
61145;DHT22;47026;51.208;3.288;2022-09-21T15:39:27;23.80;90.90
61145;DHT22;47026;51.208;3.288;2022-09-21T15:44:32;25.60;88.20
61145;DHT22;47026;51.208;3.288;2022-09-21T15:46:59;25.40;88.90
61145;DHT22;47026;51.208;3.288;2022-09-21T15:49:27;24.80;89.00
61145;DHT22;47026;51.208;3.288;2022-09-21T15:55:01;23.10;91.60
61145;DHT22;47026;51.208;3.288;2022-09-21T15:57:38;22.40;92.80
61145;DHT22;47026;51.208;3.288;2022-09-21T16:00:17;22.00;93.80
61145;DHT22;47026;51.208;3.288;2022-09-21T16:05:46;22.70;93.10
61145;DHT22;47026;51.208;3.288;2022-09-21T16:08:30;23.10;92.90
61145;DHT22;47026;51.208;3.288;2022-09-21T16:11:30;23.60;92.40
61145;DHT22;47026;51.208;3.288;2022-09-21T16:14:12;23.20;92.30
61145;DHT22;47026;51.208;3.288;2022-09-21T16:20:04;21.90;94.30
61145;DHT22;47026;51.208;3.288;2022-09-21T16:22:29;21.60;94.70
61145;DHT22;47026;51.208;3.288;2022-09-21T16:24:58;21.20;95.00
61145;DHT22;47026;51.208;3.288;2022-09-21T16:27:26;21.10;95.70
61145;DHT22;47026;51.208;3.288;2022-09-21T16:29:54;20.80;95.90
61145;DHT22;47026;51.208;3.288;2022-09-21T16:34:52;20.40;96.40
61145;DHT22;47026;51.208;3.288;2022-09-21T16:39:45;20.30;96.20
61145;DHT22;47026;51.208;3.288;2022-09-21T16:42:11;20.20;96.60
61145;DHT22;47026;51.208;3.288;2022-09-21T16:44:37;19.80;95.90
61145;DHT22;47026;51.208;3.288;2022-09-21T16:47:14;19.70;96.50
61145;DHT22;47026;51.208;3.288;2022-09-21T16:49:41;19.50;97.80
61145;DHT22;47026;51.208;3.288;2022-09-21T16:52:08;19.40;98.10
61145;DHT22;47026;51.208;3.288;2022-09-21T16:54:34;19.40;98.40
61145;DHT22;47026;51.208;3.288;2022-09-21T16:57:03;19.30;98.50
61145;DHT22;47026;51.208;3.288;2022-09-21T16:59:30;19.10;97.70
61145;DHT22;47026;51.208;3.288;2022-09-21T17:01:58;18.80;99.30
61145;DHT22;47026;51.208;3.288;2022-09-21T17:04:29;18.80;99.90
61145;DHT22;47026;51.208;3.288;2022-09-21T17:06:55;18.70;99.90
61145;DHT22;47026;51.208;3.288;2022-09-21T17:09:30;18.80;99.90
61145;DHT22;47026;51.208;3.288;2022-09-21T17:12:00;18.70;99.90
61145;DHT22;47026;51.208;3.288;2022-09-21T17:14:31;18.70;99.90
61145;DHT22;47026;51.208;3.288;2022-09-21T17:17:00;18.50;99.90
61145;DHT22;47026;51.208;3.288;2022-09-21T17:19:29;18.30;99.90
61145;DHT22;47026;51.208;3.288;2022-09-21T17:21:55;18.20;99.90
61145;DHT22;47026;51.208;3.288;2022-09-21T17:24:21;18.00;99.90
61145;DHT22;47026;51.208;3.288;2022-09-21T17:26:47;17.90;99.90
61145;DHT22;47026;51.208;3.288;2022-09-21T17:31:46;17.80;99.90
61145;DHT22;47026;51.208;3.288;2022-09-21T17:34:15;17.70;99.90
61145;DHT22;47026;51.208;3.288;2022-09-21T17:36:41;17.60;99.90
61145;DHT22;47026;51.208;3.288;2022-09-21T17:39:06;17.60;99.90
61145;DHT22;47026;51.208;3.288;2022-09-21T17:41:37;17.40;99.90
61145;DHT22;47026;51.208;3.288;2022-09-21T17:46:57;17.10;99.90
61145;DHT22;47026;51.208;3.288;2022-09-21T17:49:25;16.90;99.90
61145;DHT22;47026;51.208;3.288;2022-09-21T17:51:51;16.80;99.90
61145;DHT22;47026;51.208;3.288;2022-09-21T17:54:35;16.80;99.90
61145;DHT22;47026;51.208;3.288;2022-09-21T17:57:39;16.60;99.90
61145;DHT22;47026;51.208;3.288;2022-09-21T18:00:08;16.50;99.90
61145;DHT22;47026;51.208;3.288;2022-09-21T18:02:37;16.40;99.90
61145;DHT22;47026;51.208;3.288;2022-09-21T18:05:04;16.30;99.90
61145;DHT22;47026;51.208;3.288;2022-09-21T18:07:34;16.20;99.90
61145;DHT22;47026;51.208;3.288;2022-09-21T18:10:00;16.10;99.90
61145;DHT22;47026;51.208;3.288;2022-09-21T18:18:04;16.00;99.90
61145;DHT22;47026;51.208;3.288;2022-09-21T18:20:52;15.80;99.90
61145;DHT22;47026;51.208;3.288;2022-09-21T18:26:10;15.60;99.90
61145;DHT22;47026;51.208;3.288;2022-09-21T18:28:46;15.40;99.90
61145;DHT22;47026;51.208;3.288;2022-09-21T18:33:54;15.50;99.90
61145;DHT22;47026;51.208;3.288;2022-09-21T18:36:26;15.50;99.90
61145;DHT22;47026;51.208;3.288;2022-09-21T18:39:41;15.40;99.90
61145;DHT22;47026;51.208;3.288;2022-09-21T18:42:14;15.30;99.90
61145;DHT22;47026;51.208;3.288;2022-09-21T18:44:54;15.30;99.90
61145;DHT22;47026;51.208;3.288;2022-09-21T18:51:09;15.10;99.90
61145;DHT22;47026;51.208;3.288;2022-09-21T18:53:50;14.90;99.90
61145;DHT22;47026;51.208;3.288;2022-09-21T18:56:31;14.90;99.90
61145;DHT22;47026;51.208;3.288;2022-09-21T18:58:58;14.80;99.90
61145;DHT22;47026;51.208;3.288;2022-09-21T19:01:24;14.90;99.90
61145;DHT22;47026;51.208;3.288;2022-09-21T19:03:53;14.80;99.90
61145;DHT22;47026;51.208;3.288;2022-09-21T19:25:51;14.20;99.90
61145;DHT22;47026;51.208;3.288;2022-09-21T19:31:02;14.10;99.90
61145;DHT22;47026;51.208;3.288;2022-09-21T19:33:32;14.00;99.90
61145;DHT22;47026;51.208;3.288;2022-09-21T19:35:58;14.00;99.90
61145;DHT22;47026;51.208;3.288;2022-09-21T19:38:28;14.10;99.90
61145;DHT22;47026;51.208;3.288;2022-09-21T19:41:02;14.10;99.90
61145;DHT22;47026;51.208;3.288;2022-09-21T19:43:46;14.10;99.90
61145;DHT22;47026;51.208;3.288;2022-09-21T19:46:39;14.10;99.90
61145;DHT22;47026;51.208;3.288;2022-09-21T19:49:15;14.00;99.90
61145;DHT22;47026;51.208;3.288;2022-09-21T19:51:50;14.00;99.90
61145;DHT22;47026;51.208;3.288;2022-09-21T19:54:20;13.80;99.90
61145;DHT22;47026;51.208;3.288;2022-09-21T19:57:16;13.70;99.90
61145;DHT22;47026;51.208;3.288;2022-09-21T20:00:05;13.60;99.90
61145;DHT22;47026;51.208;3.288;2022-09-21T20:02:41;13.50;99.90